createdAt,value
2018-09-04T03:00:59.486Z,16.76
2018-09-04T03:02:57.885Z,16.78
2018-09-04T03:03:58.126Z,16.74
2018-09-04T03:04:58.138Z,16.76
2018-09-04T03:05:58.397Z,16.74
2018-09-04T03:06:58.511Z,16.64
2018-09-04T03:07:58.668Z,16.74
2018-09-04T03:08:58.828Z,16.71
2018-09-04T03:09:59.003Z,16.69
2018-09-04T03:10:59.173Z,16.75
2018-09-04T03:11:59.396Z,16.71
2018-09-04T03:12:59.590Z,16.72
2018-09-04T03:13:59.728Z,16.74
2018-09-04T03:14:59.907Z,16.74
2018-09-04T03:16:00.015Z,16.69
2018-09-04T03:17:00.170Z,16.74
2018-09-04T03:18:00.481Z,16.69
2018-09-04T03:19:00.574Z,16.68
2018-09-04T03:20:00.791Z,16.69
2018-09-04T03:21:00.904Z,16.74
2018-09-04T03:22:01.102Z,16.66
2018-09-04T03:23:01.260Z,16.72
2018-09-04T03:24:01.433Z,16.68
2018-09-04T03:25:01.721Z,16.68
2018-09-04T03:26:01.914Z,16.61
2018-09-04T03:27:01.984Z,16.65
2018-09-04T03:28:02.258Z,16.64
2018-09-04T03:29:02.395Z,16.66
2018-09-04T03:30:02.514Z,16.53
2018-09-04T03:31:02.829Z,16.64
2018-09-04T03:32:02.965Z,16.64
2018-09-04T03:33:03.098Z,16.64
2018-09-04T03:34:03.236Z,16.64
2018-09-04T03:35:03.413Z,16.69
2018-09-04T03:36:03.577Z,16.71
2018-09-04T03:37:03.733Z,16.61
2018-09-04T03:38:04.031Z,16.66
2018-09-04T03:39:04.147Z,16.60
2018-09-04T03:40:04.297Z,16.64
2018-09-04T03:41:04.503Z,16.56
2018-09-04T03:42:04.688Z,16.57
2018-09-04T03:43:05.901Z,16.51
2018-09-04T03:44:04.991Z,16.58
2018-09-04T03:45:05.164Z,16.54
2018-09-04T03:46:05.284Z,16.50
2018-09-04T03:47:05.465Z,16.50
2018-09-04T03:48:05.719Z,16.60
2018-09-04T03:49:05.805Z,16.51
2018-09-04T03:50:06.018Z,16.54
2018-09-04T03:51:06.153Z,16.54
2018-09-04T03:52:06.402Z,16.57
2018-09-04T03:53:06.537Z,16.58
2018-09-04T03:54:06.959Z,16.50
2018-09-04T03:55:06.983Z,16.50
2018-09-04T03:56:07.067Z,16.54
2018-09-04T03:57:07.289Z,16.51
2018-09-04T03:58:07.457Z,16.50
2018-09-04T03:59:07.562Z,16.50
2018-09-04T04:00:07.833Z,16.60
2018-09-04T04:01:08.706Z,16.53
2018-09-04T04:02:08.055Z,16.54
2018-09-04T04:03:08.245Z,16.53
2018-09-04T04:04:08.435Z,16.51
2018-09-04T04:05:08.732Z,16.54
2018-09-04T04:06:08.815Z,16.60
2018-09-04T04:07:08.964Z,16.58
2018-09-04T04:08:09.065Z,16.50
2018-09-04T04:09:09.312Z,16.49
2018-09-04T04:10:09.507Z,16.42
2018-09-04T04:11:09.601Z,16.43
2018-09-04T04:12:09.787Z,16.50
2018-09-04T04:13:10.052Z,16.49
2018-09-04T04:14:10.145Z,16.39
2018-09-04T04:15:10.362Z,16.51
2018-09-04T04:16:10.397Z,16.47
2018-09-04T04:17:10.712Z,16.47
2018-09-04T04:18:10.794Z,16.38
2018-09-04T04:19:11.023Z,16.39
2018-09-04T04:20:11.260Z,16.50
2018-09-04T04:21:11.393Z,16.42
2018-09-04T04:22:11.514Z,16.43
2018-09-04T04:23:11.625Z,16.38
2018-09-04T04:24:11.842Z,16.38
2018-09-04T04:25:12.133Z,16.42
2018-09-04T04:26:12.175Z,16.42
2018-09-04T04:27:12.407Z,16.46
2018-09-04T04:28:12.608Z,16.51
2018-09-04T04:29:12.656Z,16.49
2018-09-04T04:30:12.888Z,16.46
2018-09-04T04:31:13.201Z,16.51
2018-09-04T04:32:13.212Z,16.43
2018-09-04T04:33:13.352Z,16.51
2018-09-04T04:34:13.593Z,16.51
2018-09-04T04:35:13.747Z,16.50
2018-09-04T04:36:13.908Z,16.46
2018-09-04T04:37:14.160Z,16.50
2018-09-04T04:38:14.264Z,16.49
2018-09-04T04:39:14.363Z,16.49
2018-09-04T04:40:14.592Z,16.54
2018-09-04T04:41:14.804Z,16.53
2018-09-04T04:42:14.916Z,16.53
2018-09-04T04:43:15.109Z,16.51
2018-09-04T04:44:15.401Z,16.54
2018-09-04T04:45:15.477Z,16.53
2018-09-04T04:46:15.801Z,16.54
2018-09-04T04:47:15.827Z,16.61
2018-09-04T04:48:16.196Z,16.50
2018-09-04T04:49:16.308Z,16.50
2018-09-04T04:50:16.400Z,16.47
2018-09-04T04:51:16.648Z,16.49
2018-09-04T04:52:16.874Z,16.56
2018-09-04T04:53:17.078Z,16.53
2018-09-04T04:54:17.236Z,16.58
2018-09-04T04:55:17.471Z,16.61
2018-09-04T04:56:17.601Z,16.58
2018-09-04T04:57:17.740Z,16.57
2018-09-04T04:58:17.929Z,16.60
2018-09-04T04:59:18.098Z,16.56
2018-09-04T05:00:18.374Z,16.56
2018-09-04T05:01:18.371Z,16.61
2018-09-04T05:02:18.584Z,16.60
2018-09-04T05:03:18.744Z,16.58
2018-09-04T05:04:18.879Z,16.60
2018-09-04T05:05:19.094Z,16.54
2018-09-04T05:06:19.180Z,16.54
2018-09-04T05:07:19.476Z,16.57
2018-09-04T05:08:19.724Z,16.54
2018-09-04T05:09:19.741Z,16.49
2018-09-04T05:10:19.985Z,16.51
2018-09-04T05:11:20.137Z,16.47
2018-09-04T05:12:20.283Z,16.43
2018-09-04T05:13:20.406Z,16.49
2018-09-04T05:14:20.607Z,16.53
2018-09-04T05:15:20.699Z,16.47
2018-09-04T05:16:20.893Z,16.46
2018-09-04T05:17:21.040Z,16.53
2018-09-04T05:18:21.238Z,16.54
2018-09-04T05:19:21.374Z,16.60
2018-09-04T05:20:21.485Z,16.58
2018-09-04T05:21:21.666Z,16.64
2018-09-04T05:22:21.970Z,16.60
2018-09-04T05:23:22.086Z,16.57
2018-09-04T05:24:22.217Z,16.57
2018-09-04T05:25:22.331Z,16.60
2018-09-04T05:26:22.549Z,16.57
2018-09-04T05:27:22.768Z,16.64
2018-09-04T05:28:22.900Z,16.57
2018-09-04T05:29:23.294Z,16.58
2018-09-04T05:30:23.354Z,16.57
2018-09-04T05:31:23.501Z,16.58
2018-09-04T05:32:23.668Z,16.61
2018-09-04T05:33:23.951Z,16.64
2018-09-04T05:34:23.928Z,16.54
2018-09-04T05:35:24.271Z,16.61
2018-09-04T05:36:24.430Z,16.66
2018-09-04T05:37:24.558Z,16.66
2018-09-04T05:38:24.840Z,16.66
2018-09-04T05:39:24.954Z,16.75
2018-09-04T05:40:25.059Z,16.71
2018-09-04T05:41:25.323Z,16.75
2018-09-04T05:42:25.392Z,16.76
2018-09-04T05:43:25.518Z,16.71
2018-09-04T05:44:25.737Z,16.75
2018-09-04T05:45:25.938Z,16.76
2018-09-04T05:46:26.089Z,16.78
2018-09-04T05:47:26.155Z,16.81
2018-09-04T05:48:26.465Z,16.81
2018-09-04T05:49:26.445Z,16.84
2018-09-04T05:50:26.690Z,16.89
2018-09-04T05:51:26.895Z,16.91
2018-09-04T05:52:27.105Z,16.84
2018-09-04T05:53:27.270Z,16.93
2018-09-04T05:54:27.492Z,16.94
2018-09-04T05:55:27.557Z,16.96
2018-09-04T05:56:27.718Z,16.99
2018-09-04T05:57:27.877Z,16.96
2018-09-04T05:58:28.108Z,17.06
2018-09-04T05:59:28.340Z,17.11
2018-09-04T06:00:28.482Z,17.09
2018-09-04T06:01:28.668Z,17.15
2018-09-04T06:02:28.820Z,17.14
2018-09-04T06:03:29.108Z,17.24
2018-09-04T06:04:29.240Z,17.14
2018-09-04T06:05:29.265Z,17.16
2018-09-04T06:06:29.549Z,17.14
2018-09-04T06:07:29.679Z,17.36
2018-09-04T06:08:29.842Z,17.27
2018-09-04T06:09:30.051Z,17.36
2018-09-04T06:10:30.171Z,17.42
2018-09-04T06:11:30.355Z,17.44
2018-09-04T06:12:30.421Z,17.42
2018-09-04T06:13:30.673Z,17.60
2018-09-04T06:14:30.796Z,17.64
2018-09-04T06:15:31.056Z,17.71
2018-09-04T06:16:31.129Z,17.89
2018-09-04T06:17:31.310Z,17.92
2018-09-04T06:18:31.556Z,17.94
2018-09-04T06:19:31.747Z,18.01
2018-09-04T06:20:31.958Z,18.05
2018-09-04T06:21:32.067Z,18.15
2018-09-04T06:22:32.242Z,18.16
2018-09-04T06:23:32.559Z,18.25
2018-09-04T06:24:32.721Z,18.41
2018-09-04T06:25:32.873Z,18.55
2018-09-04T06:26:33.119Z,18.43
2018-09-04T06:27:33.354Z,18.55
2018-09-04T06:28:33.561Z,18.56
2018-09-04T06:29:33.745Z,18.52
2018-09-04T06:30:33.915Z,18.62
2018-09-04T06:31:34.083Z,18.70
2018-09-04T06:32:34.135Z,18.70
2018-09-04T06:33:34.452Z,18.71
2018-09-04T06:34:34.533Z,18.65
2018-09-04T06:35:34.832Z,18.77
2018-09-04T06:36:34.891Z,18.74
2018-09-04T06:37:35.109Z,18.86
2018-09-04T06:38:35.380Z,18.95
2018-09-04T06:39:35.489Z,18.93
2018-09-04T06:40:35.629Z,19.09
2018-09-04T06:41:35.807Z,19.09
2018-09-04T06:42:35.926Z,19.16
2018-09-04T06:43:36.241Z,19.16
2018-09-04T06:44:36.382Z,19.19
2018-09-04T06:45:37.437Z,19.26
2018-09-04T06:46:37.146Z,19.33
2018-09-04T06:47:36.893Z,19.45
2018-09-04T06:48:37.040Z,19.30
2018-09-04T06:49:37.406Z,19.44
2018-09-04T06:50:37.318Z,19.40
2018-09-04T06:51:37.857Z,19.62
2018-09-04T06:52:37.626Z,19.62
2018-09-04T06:53:37.694Z,19.70
2018-09-04T06:54:41.288Z,19.69
2018-09-04T06:55:39.527Z,19.86
2018-09-04T06:56:41.357Z,19.85
2018-09-04T06:57:38.654Z,19.67
2018-09-04T06:58:38.825Z,19.82
2018-09-04T06:59:38.806Z,19.79
2018-09-04T07:00:39.037Z,19.70
2018-09-04T07:01:39.291Z,19.64
2018-09-04T07:03:03.917Z,19.63
2018-09-04T07:03:45.172Z,19.63
2018-09-04T07:04:43.990Z,19.62
2018-09-04T07:05:46.689Z,19.56
2018-09-04T07:06:43.264Z,19.58
2018-09-04T07:07:43.636Z,19.54
2018-09-04T07:08:43.591Z,19.58
2018-09-04T07:09:44.211Z,19.40
2018-09-04T07:10:43.656Z,19.41
2018-09-04T07:11:48.879Z,19.36
2018-09-04T07:22:27.311Z,19.62
2018-09-04T07:23:29.090Z,19.59
2018-09-04T07:25:28.756Z,19.77
2018-09-04T07:26:28.781Z,19.64
2018-09-04T07:27:29.089Z,19.76
2018-09-04T07:28:28.789Z,19.76
2018-09-04T07:29:34.113Z,19.84
2018-09-04T07:30:29.045Z,19.88
2018-09-04T07:31:28.856Z,20.06
2018-09-04T07:32:28.556Z,20.16
2018-09-04T07:33:30.829Z,20.13
2018-09-04T07:34:27.154Z,20.25
2018-09-04T07:35:27.249Z,20.25
2018-09-04T07:36:27.543Z,20.25
2018-09-04T07:37:27.578Z,20.41
2018-09-04T07:38:27.721Z,20.44
2018-09-04T07:39:27.920Z,20.43
2018-09-04T07:40:28.125Z,20.40
2018-09-04T07:41:28.249Z,20.40
2018-09-04T07:42:28.512Z,20.48
2018-09-04T07:43:28.632Z,20.58
2018-09-04T07:44:28.904Z,20.58
2018-09-04T07:45:28.941Z,20.60
2018-09-04T07:46:29.083Z,20.58
2018-09-04T07:47:29.281Z,20.52
2018-09-04T07:48:29.473Z,20.48
2018-09-04T07:49:29.560Z,20.65
2018-09-04T07:50:29.840Z,20.58
2018-09-04T07:51:29.970Z,20.72
2018-09-04T07:52:30.119Z,20.60
2018-09-04T07:53:30.279Z,20.52
2018-09-04T07:54:30.453Z,20.62
2018-09-04T07:55:30.608Z,20.66
2018-09-04T07:56:30.853Z,20.62
2018-09-04T07:57:31.023Z,20.80
2018-09-04T07:58:31.181Z,20.70
2018-09-04T07:59:31.321Z,20.75
2018-09-04T08:00:31.563Z,20.74
2018-09-04T08:01:31.637Z,20.81
2018-09-04T08:02:31.810Z,20.87
2018-09-04T08:03:31.952Z,20.96
2018-09-04T08:04:32.270Z,21.00
2018-09-04T08:05:32.304Z,20.90
2018-09-04T08:06:32.545Z,20.84
2018-09-04T08:07:32.631Z,20.72
2018-09-04T08:08:32.816Z,20.78
2018-09-04T08:09:33.005Z,20.80
2018-09-04T08:10:33.149Z,20.74
2018-09-04T08:11:33.366Z,20.75
2018-09-04T08:12:33.554Z,20.63
2018-09-04T08:13:33.699Z,20.51
2018-09-04T08:14:33.777Z,20.40
2018-09-04T08:15:34.039Z,20.43
2018-09-04T08:16:34.466Z,20.51
2018-09-04T08:17:34.290Z,20.56
2018-09-04T08:18:34.487Z,20.50
2018-09-04T08:19:34.628Z,20.52
2018-09-04T08:20:34.967Z,20.66
2018-09-04T08:21:35.080Z,20.77
2018-09-04T08:22:35.223Z,20.92
2018-09-04T08:23:35.385Z,20.72
2018-09-04T08:24:35.547Z,20.72
2018-09-04T08:25:35.697Z,20.65
2018-09-04T08:26:35.887Z,20.72
2018-09-04T08:27:36.018Z,20.72
2018-09-04T08:28:36.178Z,20.93
2018-09-04T08:29:36.408Z,21.00
2018-09-04T08:30:36.546Z,21.12
2018-09-04T08:31:36.673Z,21.22
2018-09-04T08:32:36.863Z,21.40
2018-09-04T08:33:37.147Z,21.50
2018-09-04T08:34:37.344Z,21.66
2018-09-04T08:35:37.487Z,21.70
2018-09-04T08:36:37.617Z,21.82
2018-09-04T08:37:37.769Z,21.93
2018-09-04T08:38:38.011Z,22.02
2018-09-04T08:39:38.068Z,22.11
2018-09-04T08:40:38.338Z,22.29
2018-09-04T08:41:38.494Z,22.47
2018-09-04T08:42:38.608Z,22.53
2018-09-04T08:43:38.863Z,22.63
2018-09-04T08:44:39.006Z,22.90
2018-09-04T08:45:39.233Z,23.23
2018-09-04T08:46:39.329Z,23.61
2018-09-04T08:47:39.616Z,23.91
2018-09-04T08:48:39.818Z,24.26
2018-09-04T08:49:39.974Z,24.89
2018-09-04T08:50:40.141Z,25.50
2018-09-04T08:51:40.287Z,26.07
2018-09-04T08:52:41.028Z,26.41
2018-09-04T08:53:40.593Z,26.90
2018-09-04T08:54:40.769Z,27.26
2018-09-04T08:55:40.885Z,27.44
2018-09-04T08:56:41.027Z,27.77
2018-09-04T08:57:41.265Z,28.15
2018-09-04T08:58:41.482Z,28.23
2018-09-04T08:59:41.640Z,28.57
2018-09-04T09:00:41.725Z,28.76
2018-09-04T09:01:41.900Z,28.49
2018-09-04T09:02:42.090Z,28.79
2018-09-04T09:03:42.296Z,29.13
2018-09-04T09:04:42.705Z,28.67
2018-09-04T09:05:42.869Z,29.08
2018-09-04T09:06:42.949Z,28.69
2018-09-04T09:07:43.098Z,28.76
2018-09-04T09:08:43.251Z,28.64
2018-09-04T09:09:43.438Z,28.29
2018-09-04T09:10:43.699Z,28.29
2018-09-04T09:11:43.868Z,28.25
2018-09-04T09:12:45.040Z,28.25
2018-09-04T09:13:44.236Z,28.08
2018-09-04T09:14:44.676Z,28.51
2018-09-04T09:15:44.553Z,28.62
2018-09-04T09:16:44.863Z,28.94
2018-09-04T09:17:44.837Z,28.82
2018-09-04T09:18:45.112Z,29.04
2018-09-04T09:19:45.223Z,29.01
2018-09-04T09:20:45.462Z,29.23
2018-09-04T09:21:45.670Z,29.26
2018-09-04T09:22:46.005Z,29.29
2018-09-04T09:23:45.930Z,29.29
2018-09-04T09:24:46.128Z,29.23
2018-09-04T09:25:46.390Z,29.29
2018-09-04T09:26:46.523Z,29.14
2018-09-04T09:27:46.725Z,29.19
2018-09-04T09:28:46.929Z,29.13
2018-09-04T09:29:47.102Z,28.97
2018-09-04T09:30:47.186Z,28.45
2018-09-04T09:31:47.451Z,28.75
2018-09-04T09:32:47.701Z,28.82
2018-09-04T09:33:47.790Z,28.78
2018-09-04T09:34:47.942Z,29.10
2018-09-04T09:35:48.064Z,29.49
2018-09-04T09:36:48.462Z,29.75
2018-09-04T09:37:48.437Z,29.78
2018-09-04T09:38:48.756Z,29.95
2018-09-04T09:39:49.074Z,29.81
2018-09-04T09:40:49.076Z,29.82
2018-09-04T09:41:49.192Z,29.98
2018-09-04T09:42:49.407Z,30.10
2018-09-04T09:43:49.510Z,30.09
2018-09-04T09:44:49.739Z,30.19
2018-09-04T09:45:49.854Z,30.40
2018-09-04T09:46:50.174Z,30.09
2018-09-04T09:47:50.304Z,30.47
2018-09-04T09:48:50.446Z,30.34
2018-09-04T09:49:50.751Z,30.37
2018-09-04T09:50:56.368Z,30.51
2018-09-04T09:51:51.233Z,30.70
2018-09-04T09:52:51.263Z,31.15
2018-09-04T09:53:51.308Z,31.37
2018-09-04T09:54:51.463Z,31.21
2018-09-04T09:55:51.682Z,31.37
2018-09-04T09:56:51.867Z,31.55
2018-09-04T09:57:52.025Z,31.69
2018-09-04T09:58:52.260Z,31.49
2018-09-04T09:59:52.412Z,31.69
2018-09-04T10:00:52.594Z,31.59
2018-09-04T10:01:52.708Z,31.61
2018-09-04T10:02:52.981Z,31.56
2018-09-04T10:03:53.164Z,31.66
2018-09-04T10:04:53.342Z,31.36
2018-09-04T10:05:53.871Z,31.52
2018-09-04T10:06:53.689Z,31.49
2018-09-04T10:07:53.907Z,31.74
2018-09-04T10:08:53.930Z,32.12
2018-09-04T10:09:54.152Z,32.19
2018-09-04T10:10:54.294Z,32.41
2018-09-04T10:11:54.556Z,32.58
2018-09-04T10:12:54.700Z,32.82
2018-09-04T10:13:54.863Z,33.15
2018-09-04T10:14:55.065Z,33.20
2018-09-04T10:15:55.210Z,33.32
2018-09-04T10:16:55.495Z,33.59
2018-09-04T10:17:55.604Z,33.96
2018-09-04T10:18:55.787Z,34.13
2018-09-04T10:19:56.065Z,34.16
2018-09-04T10:20:56.214Z,34.21
2018-09-04T10:21:56.406Z,34.14
2018-09-04T10:22:56.495Z,34.02
2018-09-04T10:23:56.663Z,34.17
2018-09-04T10:24:56.907Z,34.13
2018-09-04T10:25:57.046Z,34.18
2018-09-04T10:26:57.283Z,34.27
2018-09-04T10:27:57.452Z,34.70
2018-09-04T10:28:57.619Z,35.17
2018-09-04T10:29:57.788Z,35.36
2018-09-04T10:30:58.003Z,35.41
2018-09-04T10:31:58.211Z,34.86
2018-09-04T10:32:58.345Z,34.25
2018-09-04T10:33:58.605Z,34.57
2018-09-04T10:34:58.689Z,34.66
2018-09-04T10:35:58.822Z,34.39
2018-09-04T10:36:59.076Z,34.38
2018-09-04T10:37:59.193Z,34.54
2018-09-04T10:38:59.429Z,34.38
2018-09-04T10:39:59.668Z,34.17
2018-09-04T10:40:59.771Z,33.77
2018-09-04T10:42:00.011Z,34.05
2018-09-04T10:43:00.188Z,34.35
2018-09-04T10:44:00.404Z,34.40
2018-09-04T10:45:00.455Z,34.29
2018-09-04T10:46:00.610Z,34.57
2018-09-04T10:47:01.557Z,34.93
2018-09-04T10:48:01.154Z,35.29
2018-09-04T10:49:01.346Z,35.24
2018-09-04T10:50:01.505Z,35.27
2018-09-04T10:51:01.720Z,35.19
2018-09-04T10:52:01.921Z,35.19
2018-09-04T10:53:01.963Z,34.93
2018-09-04T10:54:04.075Z,35.19
2018-09-04T10:55:02.408Z,35.42
2018-09-04T10:56:08.646Z,35.52
2018-09-04T10:57:02.833Z,35.73
2018-09-04T10:58:02.947Z,35.63
2018-09-04T10:59:03.467Z,35.60
2018-09-04T11:00:03.465Z,35.89
2018-09-04T11:02:04.803Z,35.80
2018-09-04T11:03:03.887Z,35.79
2018-09-04T11:04:03.984Z,36.05
2018-09-04T11:05:04.101Z,36.28
2018-09-04T11:06:05.293Z,36.28
2018-09-04T11:07:12.793Z,36.17
2018-09-04T11:08:04.806Z,36.16
2018-09-04T11:09:04.983Z,35.92
2018-09-04T11:10:05.040Z,36.07
2018-09-04T11:11:05.180Z,36.21
2018-09-04T11:12:05.438Z,36.45
2018-09-04T11:13:05.882Z,36.25
2018-09-04T11:14:05.860Z,36.04
2018-09-04T11:15:06.649Z,36.31
2018-09-04T11:16:06.191Z,36.54
2018-09-04T11:17:06.343Z,36.72
2018-09-04T11:18:06.574Z,36.58
2018-09-04T11:19:06.687Z,36.46
2018-09-04T11:20:06.968Z,36.51
2018-09-04T11:21:07.019Z,36.14
2018-09-04T11:22:07.200Z,36.02
2018-09-04T11:23:07.315Z,36.08
2018-09-04T11:24:07.671Z,35.49
2018-09-04T11:25:07.816Z,36.14
2018-09-04T11:26:07.973Z,36.49
2018-09-04T11:27:08.204Z,36.83
2018-09-04T11:28:08.342Z,36.88
2018-09-04T11:29:08.518Z,36.95
2018-09-04T11:30:08.737Z,35.83
2018-09-04T11:31:08.916Z,34.96
2018-09-04T11:32:09.105Z,34.20
2018-09-04T11:33:09.333Z,34.36
2018-09-04T11:34:09.510Z,34.60
2018-09-04T11:35:09.703Z,34.80
2018-09-04T11:36:09.965Z,35.27
2018-09-04T11:37:10.219Z,35.45
2018-09-04T11:38:10.501Z,35.98
2018-09-04T11:39:10.319Z,35.97
2018-09-04T11:40:10.543Z,36.45
2018-09-04T11:41:10.916Z,36.80
2018-09-04T11:43:11.231Z,37.21
2018-09-04T11:44:11.494Z,36.86
2018-09-04T11:45:11.595Z,37.15
2018-09-04T11:46:11.856Z,37.53
2018-09-04T11:47:11.855Z,37.82
2018-09-04T11:48:12.161Z,38.05
2018-09-04T11:49:12.326Z,38.05
2018-09-04T11:50:12.512Z,38.06
2018-09-04T11:51:12.625Z,37.75
2018-09-04T11:52:12.778Z,38.08
2018-09-04T11:53:13.086Z,38.34
2018-09-04T11:54:13.237Z,38.55
2018-09-04T11:55:13.333Z,38.48
2018-09-04T11:56:18.058Z,38.21
2018-09-04T11:57:13.688Z,38.02
2018-09-04T11:58:14.124Z,37.80
2018-09-04T11:59:20.359Z,37.96
2018-09-04T12:03:03.850Z,38.74
2018-09-04T12:03:55.189Z,38.73
2018-09-04T12:04:55.842Z,38.48
2018-09-04T12:05:55.435Z,38.65
2018-09-04T12:06:55.303Z,38.69
2018-09-04T12:07:55.921Z,38.48
2018-09-04T12:08:57.485Z,38.64
2018-09-04T12:09:55.638Z,38.50
2018-09-04T12:10:55.749Z,37.92
2018-09-04T12:11:55.956Z,38.02
2018-09-04T12:12:56.138Z,38.24
2018-09-04T12:13:56.248Z,38.65
2018-09-04T12:14:56.560Z,38.84
2018-09-04T12:15:56.685Z,39.03
2018-09-04T12:16:56.956Z,39.26
2018-09-04T12:17:57.145Z,39.51
2018-09-04T12:18:57.353Z,39.36
2018-09-04T12:19:57.439Z,39.12
2018-09-04T12:20:57.740Z,38.87
2018-09-04T12:21:57.825Z,38.87
2018-09-04T12:22:58.163Z,38.64
2018-09-04T12:23:58.192Z,38.58
2018-09-04T12:24:58.410Z,38.89
2018-09-04T12:25:58.607Z,39.18
2018-09-04T12:26:58.743Z,39.33
2018-09-04T12:27:58.951Z,39.17
2018-09-04T12:28:59.066Z,38.46
2018-09-04T12:29:59.332Z,38.60
2018-09-04T12:30:59.518Z,38.92
2018-09-04T12:31:59.762Z,39.34
2018-09-04T12:32:59.870Z,39.52
2018-09-04T12:34:00.101Z,39.65
2018-09-04T12:35:00.290Z,39.56
2018-09-04T12:36:00.505Z,39.15
2018-09-04T12:37:00.704Z,39.00
2018-09-04T12:38:00.888Z,38.36
2018-09-04T12:39:01.077Z,38.62
2018-09-04T12:40:01.260Z,38.19
2018-09-04T12:41:01.505Z,37.64
2018-09-04T12:42:01.652Z,37.82
2018-09-04T12:43:17.039Z,38.17
2018-09-04T12:44:02.077Z,38.28
2018-09-04T12:45:02.362Z,38.46
2018-09-04T12:46:02.417Z,38.67
2018-09-04T12:47:02.509Z,39.12
2018-09-04T12:48:02.787Z,39.55
2018-09-04T12:49:02.954Z,39.12
2018-09-04T12:50:03.254Z,39.22
2018-09-04T12:51:03.633Z,39.41
2018-09-04T12:52:03.740Z,39.86
2018-09-04T12:53:03.718Z,39.78
2018-09-04T12:54:04.295Z,39.67
2018-09-04T12:55:04.828Z,39.37
2018-09-04T12:56:04.909Z,39.74
2018-09-04T12:57:04.672Z,39.41
2018-09-04T12:58:05.071Z,39.22
2018-09-04T12:59:05.988Z,39.04
2018-09-04T13:00:05.194Z,38.79
2018-09-04T13:01:05.528Z,38.65
2018-09-04T13:02:05.648Z,38.84
2018-09-04T13:03:05.776Z,38.49
2018-09-04T13:04:06.027Z,37.47
2018-09-04T13:05:06.243Z,36.95
2018-09-04T13:06:06.355Z,36.64
2018-09-04T13:07:07.299Z,36.09
2018-09-04T13:08:06.798Z,35.52
2018-09-04T13:09:07.070Z,35.15
2018-09-04T13:10:07.895Z,35.05
2018-09-04T13:11:07.370Z,35.12
2018-09-04T13:12:07.620Z,34.74
2018-09-04T13:13:07.815Z,34.40
2018-09-04T13:14:07.983Z,33.89
2018-09-04T13:15:08.191Z,33.81
2018-09-04T13:16:08.353Z,33.67
2018-09-04T13:17:08.495Z,33.46
2018-09-04T13:18:08.687Z,33.07
2018-09-04T13:19:08.846Z,32.75
2018-09-04T13:20:09.257Z,32.64
2018-09-04T13:21:09.648Z,32.43
2018-09-04T13:22:09.496Z,32.09
2018-09-04T13:23:09.719Z,32.07
2018-09-04T13:24:09.870Z,31.84
2018-09-04T13:25:10.027Z,31.81
2018-09-04T13:26:10.187Z,31.97
2018-09-04T13:27:10.358Z,31.76
2018-09-04T13:28:10.481Z,31.71
2018-09-04T13:29:10.706Z,31.55
2018-09-04T13:30:10.848Z,31.34
2018-09-04T13:31:11.132Z,31.37
2018-09-04T13:32:11.322Z,31.12
2018-09-04T13:33:11.507Z,30.88
2018-09-04T13:34:11.701Z,30.88
2018-09-04T13:35:11.748Z,30.72
2018-09-04T13:36:11.998Z,30.69
2018-09-04T13:37:12.140Z,30.40
2018-09-04T13:38:12.981Z,30.40
2018-09-04T13:39:12.502Z,30.35
2018-09-04T13:40:12.640Z,30.46
2018-09-04T13:41:12.888Z,30.39
2018-09-04T13:42:13.002Z,30.53
2018-09-04T13:43:13.310Z,30.51
2018-09-04T13:44:13.424Z,30.54
2018-09-04T13:45:13.551Z,30.46
2018-09-04T13:46:13.680Z,30.54
2018-09-04T13:47:13.859Z,30.40
2018-09-04T13:48:14.084Z,30.43
2018-09-04T13:49:14.306Z,30.30
2018-09-04T13:50:14.459Z,30.15
2018-09-04T13:51:14.643Z,30.05
2018-09-04T13:52:14.861Z,30.03
2018-09-04T13:53:14.937Z,30.03
2018-09-04T13:54:15.171Z,30.00
2018-09-04T13:55:15.357Z,29.95
2018-09-04T13:56:15.562Z,29.88
2018-09-04T13:57:15.735Z,29.78
2018-09-04T13:58:16.018Z,29.86
2018-09-04T13:59:16.118Z,29.72
2018-09-04T14:00:16.330Z,29.66
2018-09-04T14:01:16.470Z,29.56
2018-09-04T14:02:16.646Z,29.61
2018-09-04T14:03:16.818Z,29.63
2018-09-04T14:04:17.043Z,29.63
2018-09-04T14:05:17.399Z,29.75
2018-09-04T14:06:17.349Z,29.79
2018-09-04T14:07:17.509Z,29.84
2018-09-04T14:08:17.717Z,29.78
2018-09-04T14:09:18.086Z,29.93
2018-09-04T14:10:18.145Z,29.90
2018-09-04T14:11:18.313Z,29.93
2018-09-04T14:12:18.456Z,29.81
2018-09-04T14:13:18.658Z,29.78
2018-09-04T14:14:18.812Z,29.73
2018-09-04T14:15:19.074Z,29.50
2018-09-04T14:16:19.183Z,29.53
2018-09-04T14:17:20.054Z,29.61
2018-09-04T14:18:19.590Z,29.29
2018-09-04T14:19:19.757Z,29.17
2018-09-04T14:20:20.259Z,29.14
2018-09-04T14:21:20.210Z,29.13
2018-09-04T14:22:20.320Z,28.88
2018-09-04T14:23:20.440Z,28.86
2018-09-04T14:24:20.705Z,28.67
2018-09-04T14:25:20.831Z,28.66
2018-09-04T14:26:21.037Z,28.59
2018-09-04T14:27:21.136Z,28.45
2018-09-04T14:28:40.971Z,28.57
2018-09-04T14:29:53.156Z,28.54
2018-09-04T14:30:21.646Z,28.39
2018-09-04T14:31:21.866Z,28.30
2018-09-04T14:32:22.092Z,28.30
2018-09-04T14:33:22.151Z,28.35
2018-09-04T14:34:22.382Z,28.37
2018-09-04T14:35:22.571Z,28.35
2018-09-04T14:36:22.730Z,28.49
2018-09-04T14:37:22.936Z,28.37
2018-09-04T14:38:23.125Z,28.23
2018-09-04T14:39:23.175Z,28.19
2018-09-04T14:40:23.428Z,28.14
2018-09-04T14:41:23.539Z,28.14
2018-09-04T14:42:23.686Z,28.11
2018-09-04T14:43:23.847Z,27.85
2018-09-04T14:44:24.061Z,27.92
2018-09-04T14:45:24.176Z,27.80
2018-09-04T14:46:24.930Z,27.83
2018-09-04T14:47:24.702Z,27.70
2018-09-04T14:48:24.825Z,27.75
2018-09-04T14:49:25.994Z,27.70
2018-09-04T14:50:25.065Z,27.75
2018-09-04T14:51:25.648Z,27.65
2018-09-04T14:52:25.499Z,27.75
2018-09-04T14:53:25.715Z,27.70
2018-09-04T14:54:25.889Z,27.77
2018-09-04T14:55:26.012Z,27.90
2018-09-04T14:56:26.217Z,27.83
2018-09-04T14:57:26.489Z,27.93
2018-09-04T14:58:26.499Z,28.11
2018-09-04T14:59:26.762Z,28.23
2018-09-04T15:00:26.894Z,28.35
2018-09-04T15:01:27.068Z,28.25
2018-09-04T15:02:27.258Z,28.39
2018-09-04T15:03:27.931Z,28.56
2018-09-04T15:04:27.779Z,28.85
2018-09-04T15:05:27.917Z,28.88
2018-09-04T15:06:28.044Z,28.88
2018-09-04T15:07:28.132Z,29.20
2018-09-04T15:08:28.426Z,29.39
2018-09-04T15:09:28.520Z,30.02
2018-09-04T15:10:28.674Z,30.55
2018-09-04T15:11:29.452Z,31.17
2018-09-04T15:12:29.006Z,32.07
2018-09-04T15:13:29.973Z,32.85
2018-09-04T15:14:29.410Z,33.46
2018-09-04T15:15:29.546Z,34.02
2018-09-04T15:16:29.758Z,34.54
2018-09-04T15:17:29.906Z,34.64
2018-09-04T15:18:30.070Z,34.85
2018-09-04T15:19:30.266Z,34.99
2018-09-04T15:20:30.389Z,35.26
2018-09-04T15:21:30.634Z,35.49
2018-09-04T15:22:30.728Z,35.82
2018-09-04T15:23:31.528Z,35.98
2018-09-04T15:24:31.199Z,36.17
2018-09-04T15:25:31.314Z,36.04
2018-09-04T15:26:31.454Z,35.97
2018-09-04T15:27:31.730Z,35.89
2018-09-04T15:28:31.830Z,35.73
2018-09-04T15:29:32.059Z,35.90
2018-09-04T15:30:32.215Z,35.92
2018-09-04T15:31:32.473Z,35.55
2018-09-04T15:32:33.431Z,35.26
2018-09-04T15:33:33.430Z,34.55
2018-09-04T15:34:32.918Z,33.86
2018-09-04T15:35:33.105Z,33.31
2018-09-04T15:36:33.247Z,33.02
2018-09-04T15:37:33.418Z,32.59
2018-09-04T15:38:33.648Z,32.49
2018-09-04T15:39:33.818Z,32.23
2018-09-04T15:40:33.963Z,32.19
2018-09-04T15:41:34.102Z,32.15
2018-09-04T15:42:34.325Z,31.85
2018-09-04T15:43:34.467Z,31.58
2018-09-04T15:44:35.466Z,31.34
2018-09-04T15:45:34.914Z,31.29
2018-09-04T15:46:35.049Z,31.37
2018-09-04T15:47:35.161Z,31.55
2018-09-04T15:48:35.444Z,31.77
2018-09-04T15:49:36.448Z,31.76
2018-09-04T15:50:35.722Z,31.59
2018-09-04T15:51:35.963Z,31.58
2018-09-04T15:52:36.135Z,31.34
2018-09-04T15:53:36.362Z,31.10
2018-09-04T15:54:36.503Z,31.00
2018-09-04T15:55:36.762Z,30.88
2018-09-04T15:56:36.916Z,30.83
2018-09-04T15:57:37.567Z,30.72
2018-09-04T15:58:37.382Z,30.62
2018-09-04T15:59:37.480Z,30.59
2018-09-04T16:00:37.616Z,30.44
2018-09-04T16:01:38.001Z,30.10
2018-09-04T16:02:38.682Z,30.18
2018-09-04T16:03:38.336Z,30.08
2018-09-04T16:04:39.103Z,29.87
2018-09-04T16:05:39.579Z,29.86
2018-09-04T16:06:39.882Z,29.76
2018-09-04T16:07:39.338Z,29.66
2018-09-04T16:08:38.911Z,29.63
2018-09-04T16:09:39.110Z,29.49
2018-09-04T16:10:39.283Z,29.35
2018-09-04T16:11:39.325Z,29.24